sensor_id;sensor_type;location;lat;lon;timestamp;P1;durP1;ratioP1;P2;durP2;ratioP2
43580;SDS011;29175;51.030;4.606;2023-04-03T00:00:32;26.98;;;11.77;;
43580;SDS011;29175;51.030;4.606;2023-04-03T00:02:58;28.60;;;13.73;;
43580;SDS011;29175;51.030;4.606;2023-04-03T00:05:24;37.88;;;13.15;;
43580;SDS011;29175;51.030;4.606;2023-04-03T00:07:50;24.50;;;12.75;;
43580;SDS011;29175;51.030;4.606;2023-04-03T00:10:16;29.38;;;11.70;;
43580;SDS011;29175;51.030;4.606;2023-04-03T00:12:42;20.85;;;10.77;;
43580;SDS011;29175;51.030;4.606;2023-04-03T00:15:08;21.13;;;10.63;;
43580;SDS011;29175;51.030;4.606;2023-04-03T00:17:34;20.20;;;9.80;;
43580;SDS011;29175;51.030;4.606;2023-04-03T00:20:00;22.08;;;9.90;;
43580;SDS011;29175;51.030;4.606;2023-04-03T00:22:26;16.60;;;10.43;;
43580;SDS011;29175;51.030;4.606;2023-04-03T00:24:53;24.67;;;9.60;;
43580;SDS011;29175;51.030;4.606;2023-04-03T00:27:19;21.98;;;10.25;;
43580;SDS011;29175;51.030;4.606;2023-04-03T00:29:45;18.42;;;10.43;;
43580;SDS011;29175;51.030;4.606;2023-04-03T00:32:12;22.95;;;10.52;;
43580;SDS011;29175;51.030;4.606;2023-04-03T00:34:37;23.95;;;10.27;;
43580;SDS011;29175;51.030;4.606;2023-04-03T00:37:03;25.23;;;10.82;;
43580;SDS011;29175;51.030;4.606;2023-04-03T00:39:29;18.73;;;9.93;;
43580;SDS011;29175;51.030;4.606;2023-04-03T00:41:55;22.70;;;11.48;;
43580;SDS011;29175;51.030;4.606;2023-04-03T00:47:07;22.13;;;10.27;;
43580;SDS011;29175;51.030;4.606;2023-04-03T00:49:36;21.60;;;10.68;;
43580;SDS011;29175;51.030;4.606;2023-04-03T00:52:04;30.20;;;12.07;;
43580;SDS011;29175;51.030;4.606;2023-04-03T00:54:32;26.02;;;12.45;;
43580;SDS011;29175;51.030;4.606;2023-04-03T00:57:00;25.85;;;11.13;;
43580;SDS011;29175;51.030;4.606;2023-04-03T00:59:27;23.35;;;12.10;;
43580;SDS011;29175;51.030;4.606;2023-04-03T01:01:57;21.98;;;10.50;;
43580;SDS011;29175;51.030;4.606;2023-04-03T01:07:03;21.17;;;10.10;;
43580;SDS011;29175;51.030;4.606;2023-04-03T01:09:33;20.95;;;10.80;;
43580;SDS011;29175;51.030;4.606;2023-04-03T01:12:14;29.75;;;11.10;;
43580;SDS011;29175;51.030;4.606;2023-04-03T01:15:05;16.23;;;9.52;;
43580;SDS011;29175;51.030;4.606;2023-04-03T01:25:36;18.40;;;9.27;;
43580;SDS011;29175;51.030;4.606;2023-04-03T01:28:07;18.77;;;9.13;;
43580;SDS011;29175;51.030;4.606;2023-04-03T01:30:44;20.27;;;9.17;;
43580;SDS011;29175;51.030;4.606;2023-04-03T01:33:29;17.08;;;9.00;;
43580;SDS011;29175;51.030;4.606;2023-04-03T01:35:55;17.02;;;9.25;;
43580;SDS011;29175;51.030;4.606;2023-04-03T01:38:21;20.00;;;10.00;;
43580;SDS011;29175;51.030;4.606;2023-04-03T01:40:47;23.17;;;10.02;;
43580;SDS011;29175;51.030;4.606;2023-04-03T01:43:12;19.45;;;9.05;;
43580;SDS011;29175;51.030;4.606;2023-04-03T01:45:38;17.15;;;8.57;;
43580;SDS011;29175;51.030;4.606;2023-04-03T01:48:04;15.18;;;8.07;;
43580;SDS011;29175;51.030;4.606;2023-04-03T01:50:30;16.73;;;8.50;;
43580;SDS011;29175;51.030;4.606;2023-04-03T01:52:56;18.08;;;8.50;;
43580;SDS011;29175;51.030;4.606;2023-04-03T01:55:22;19.10;;;9.88;;
43580;SDS011;29175;51.030;4.606;2023-04-03T01:57:47;20.42;;;9.50;;
43580;SDS011;29175;51.030;4.606;2023-04-03T02:00:13;19.75;;;8.40;;
43580;SDS011;29175;51.030;4.606;2023-04-03T02:02:39;17.73;;;8.20;;
43580;SDS011;29175;51.030;4.606;2023-04-03T02:05:05;19.88;;;8.88;;
43580;SDS011;29175;51.030;4.606;2023-04-03T02:07:31;21.35;;;8.95;;
43580;SDS011;29175;51.030;4.606;2023-04-03T02:09:57;18.25;;;9.00;;
43580;SDS011;29175;51.030;4.606;2023-04-03T02:12:23;22.50;;;9.85;;
43580;SDS011;29175;51.030;4.606;2023-04-03T02:14:48;18.95;;;10.23;;
43580;SDS011;29175;51.030;4.606;2023-04-03T02:17:14;23.05;;;9.90;;
43580;SDS011;29175;51.030;4.606;2023-04-03T02:19:40;23.52;;;10.30;;
43580;SDS011;29175;51.030;4.606;2023-04-03T02:22:06;17.15;;;9.15;;
43580;SDS011;29175;51.030;4.606;2023-04-03T02:24:32;20.17;;;9.68;;
43580;SDS011;29175;51.030;4.606;2023-04-03T02:26:58;20.52;;;11.02;;
43580;SDS011;29175;51.030;4.606;2023-04-03T02:29:24;20.85;;;10.35;;
43580;SDS011;29175;51.030;4.606;2023-04-03T02:31:50;21.63;;;10.55;;
43580;SDS011;29175;51.030;4.606;2023-04-03T02:34:16;21.02;;;10.38;;
43580;SDS011;29175;51.030;4.606;2023-04-03T02:36:42;23.65;;;11.45;;
43580;SDS011;29175;51.030;4.606;2023-04-03T02:39:09;24.20;;;11.32;;
43580;SDS011;29175;51.030;4.606;2023-04-03T02:41:35;23.35;;;10.48;;
43580;SDS011;29175;51.030;4.606;2023-04-03T02:44:04;23.65;;;10.70;;
43580;SDS011;29175;51.030;4.606;2023-04-03T02:46:31;25.13;;;11.43;;
43580;SDS011;29175;51.030;4.606;2023-04-03T02:48:58;22.67;;;11.68;;
43580;SDS011;29175;51.030;4.606;2023-04-03T02:51:23;26.55;;;11.23;;
43580;SDS011;29175;51.030;4.606;2023-04-03T02:53:49;18.58;;;10.90;;
43580;SDS011;29175;51.030;4.606;2023-04-03T02:56:15;30.88;;;11.63;;
43580;SDS011;29175;51.030;4.606;2023-04-03T02:58:43;25.45;;;11.45;;
43580;SDS011;29175;51.030;4.606;2023-04-03T03:01:09;18.65;;;11.20;;
43580;SDS011;29175;51.030;4.606;2023-04-03T03:03:35;21.98;;;11.07;;
43580;SDS011;29175;51.030;4.606;2023-04-03T03:06:05;25.15;;;12.32;;
43580;SDS011;29175;51.030;4.606;2023-04-03T03:08:31;28.25;;;12.40;;
43580;SDS011;29175;51.030;4.606;2023-04-03T03:10:57;27.35;;;11.80;;
43580;SDS011;29175;51.030;4.606;2023-04-03T03:13:23;26.67;;;13.00;;
43580;SDS011;29175;51.030;4.606;2023-04-03T03:15:49;28.77;;;12.23;;
43580;SDS011;29175;51.030;4.606;2023-04-03T03:18:15;27.58;;;12.60;;
43580;SDS011;29175;51.030;4.606;2023-04-03T03:20:41;23.33;;;11.80;;
43580;SDS011;29175;51.030;4.606;2023-04-03T03:23:06;30.73;;;13.20;;
43580;SDS011;29175;51.030;4.606;2023-04-03T03:25:32;26.38;;;12.48;;
43580;SDS011;29175;51.030;4.606;2023-04-03T03:27:58;30.30;;;12.23;;
43580;SDS011;29175;51.030;4.606;2023-04-03T03:30:24;23.77;;;12.05;;
43580;SDS011;29175;51.030;4.606;2023-04-03T03:32:50;24.27;;;12.00;;
43580;SDS011;29175;51.030;4.606;2023-04-03T03:35:15;25.90;;;13.25;;
43580;SDS011;29175;51.030;4.606;2023-04-03T03:37:41;24.23;;;11.95;;
43580;SDS011;29175;51.030;4.606;2023-04-03T03:40:07;23.48;;;11.52;;
43580;SDS011;29175;51.030;4.606;2023-04-03T03:42:33;20.23;;;10.75;;
43580;SDS011;29175;51.030;4.606;2023-04-03T03:44:59;24.55;;;12.65;;
43580;SDS011;29175;51.030;4.606;2023-04-03T03:47:26;26.23;;;12.40;;
43580;SDS011;29175;51.030;4.606;2023-04-03T03:49:52;27.30;;;11.60;;
43580;SDS011;29175;51.030;4.606;2023-04-03T03:52:18;24.38;;;12.50;;
43580;SDS011;29175;51.030;4.606;2023-04-03T03:54:43;25.65;;;11.95;;
43580;SDS011;29175;51.030;4.606;2023-04-03T03:57:09;26.80;;;11.80;;
43580;SDS011;29175;51.030;4.606;2023-04-03T03:59:35;27.85;;;12.85;;
43580;SDS011;29175;51.030;4.606;2023-04-03T04:02:01;30.95;;;12.88;;
43580;SDS011;29175;51.030;4.606;2023-04-03T04:04:27;25.65;;;11.95;;
43580;SDS011;29175;51.030;4.606;2023-04-03T04:06:53;28.73;;;12.45;;
43580;SDS011;29175;51.030;4.606;2023-04-03T04:09:18;24.50;;;11.50;;
43580;SDS011;29175;51.030;4.606;2023-04-03T04:11:44;27.15;;;12.45;;
43580;SDS011;29175;51.030;4.606;2023-04-03T04:14:10;27.58;;;13.43;;
43580;SDS011;29175;51.030;4.606;2023-04-03T04:16:37;28.60;;;12.57;;
43580;SDS011;29175;51.030;4.606;2023-04-03T04:19:03;29.15;;;11.93;;
43580;SDS011;29175;51.030;4.606;2023-04-03T04:21:29;30.00;;;12.40;;
43580;SDS011;29175;51.030;4.606;2023-04-03T04:23:54;22.05;;;11.25;;
43580;SDS011;29175;51.030;4.606;2023-04-03T04:26:20;25.02;;;10.63;;
43580;SDS011;29175;51.030;4.606;2023-04-03T04:28:46;23.85;;;11.65;;
43580;SDS011;29175;51.030;4.606;2023-04-03T04:31:11;24.25;;;11.60;;
43580;SDS011;29175;51.030;4.606;2023-04-03T04:33:37;24.23;;;11.48;;
43580;SDS011;29175;51.030;4.606;2023-04-03T04:36:03;28.17;;;12.38;;
43580;SDS011;29175;51.030;4.606;2023-04-03T04:38:29;24.52;;;12.15;;
43580;SDS011;29175;51.030;4.606;2023-04-03T04:40:54;22.30;;;10.52;;
43580;SDS011;29175;51.030;4.606;2023-04-03T04:43:20;22.33;;;11.98;;
43580;SDS011;29175;51.030;4.606;2023-04-03T04:45:46;30.83;;;14.57;;
43580;SDS011;29175;51.030;4.606;2023-04-03T04:48:12;28.98;;;12.27;;
43580;SDS011;29175;51.030;4.606;2023-04-03T04:50:37;32.13;;;12.38;;
43580;SDS011;29175;51.030;4.606;2023-04-03T04:53:03;24.67;;;11.93;;
43580;SDS011;29175;51.030;4.606;2023-04-03T04:55:29;24.13;;;11.27;;
43580;SDS011;29175;51.030;4.606;2023-04-03T04:57:55;23.98;;;11.32;;
43580;SDS011;29175;51.030;4.606;2023-04-03T05:00:21;23.10;;;12.25;;
43580;SDS011;29175;51.030;4.606;2023-04-03T05:02:46;27.50;;;12.50;;
43580;SDS011;29175;51.030;4.606;2023-04-03T05:05:12;26.77;;;12.05;;
43580;SDS011;29175;51.030;4.606;2023-04-03T05:07:38;30.40;;;12.90;;
43580;SDS011;29175;51.030;4.606;2023-04-03T05:10:04;35.25;;;13.70;;
43580;SDS011;29175;51.030;4.606;2023-04-03T05:12:30;32.80;;;13.13;;
43580;SDS011;29175;51.030;4.606;2023-04-03T05:14:56;25.20;;;11.68;;
43580;SDS011;29175;51.030;4.606;2023-04-03T05:17:22;31.10;;;13.68;;
43580;SDS011;29175;51.030;4.606;2023-04-03T05:19:48;36.97;;;14.52;;
43580;SDS011;29175;51.030;4.606;2023-04-03T05:22:13;28.63;;;14.07;;
43580;SDS011;29175;51.030;4.606;2023-04-03T05:24:40;50.30;;;15.23;;
43580;SDS011;29175;51.030;4.606;2023-04-03T05:27:05;42.20;;;15.55;;
43580;SDS011;29175;51.030;4.606;2023-04-03T05:29:31;34.45;;;14.68;;
43580;SDS011;29175;51.030;4.606;2023-04-03T05:31:57;45.70;;;16.45;;
43580;SDS011;29175;51.030;4.606;2023-04-03T05:34:22;34.97;;;15.45;;
43580;SDS011;29175;51.030;4.606;2023-04-03T05:36:48;30.00;;;15.00;;
43580;SDS011;29175;51.030;4.606;2023-04-03T05:39:14;31.33;;;13.55;;
43580;SDS011;29175;51.030;4.606;2023-04-03T05:41:39;39.33;;;13.32;;
43580;SDS011;29175;51.030;4.606;2023-04-03T05:44:05;39.38;;;12.85;;
43580;SDS011;29175;51.030;4.606;2023-04-03T05:46:31;30.75;;;13.70;;
43580;SDS011;29175;51.030;4.606;2023-04-03T05:48:57;32.08;;;15.38;;
43580;SDS011;29175;51.030;4.606;2023-04-03T05:51:24;31.70;;;14.70;;
43580;SDS011;29175;51.030;4.606;2023-04-03T05:53:55;26.73;;;14.25;;
43580;SDS011;29175;51.030;4.606;2023-04-03T05:56:47;29.10;;;14.85;;
43580;SDS011;29175;51.030;4.606;2023-04-03T05:59:14;29.63;;;14.70;;
43580;SDS011;29175;51.030;4.606;2023-04-03T06:01:40;35.08;;;16.52;;
43580;SDS011;29175;51.030;4.606;2023-04-03T06:04:06;33.65;;;16.35;;
43580;SDS011;29175;51.030;4.606;2023-04-03T06:09:11;33.20;;;16.58;;
43580;SDS011;29175;51.030;4.606;2023-04-03T06:11:37;40.97;;;18.02;;
43580;SDS011;29175;51.030;4.606;2023-04-03T06:14:04;36.03;;;16.35;;
43580;SDS011;29175;51.030;4.606;2023-04-03T06:16:29;43.47;;;18.35;;
43580;SDS011;29175;51.030;4.606;2023-04-03T06:18:55;33.95;;;16.42;;
43580;SDS011;29175;51.030;4.606;2023-04-03T06:21:22;43.17;;;18.17;;
43580;SDS011;29175;51.030;4.606;2023-04-03T06:23:47;41.67;;;17.23;;
43580;SDS011;29175;51.030;4.606;2023-04-03T06:26:13;29.13;;;15.23;;
43580;SDS011;29175;51.030;4.606;2023-04-03T06:28:39;28.08;;;14.25;;
43580;SDS011;29175;51.030;4.606;2023-04-03T06:31:05;29.13;;;14.45;;
43580;SDS011;29175;51.030;4.606;2023-04-03T06:33:31;20.15;;;11.35;;
43580;SDS011;29175;51.030;4.606;2023-04-03T06:35:57;23.70;;;10.40;;
43580;SDS011;29175;51.030;4.606;2023-04-03T06:38:23;17.02;;;9.80;;
43580;SDS011;29175;51.030;4.606;2023-04-03T06:40:49;20.48;;;9.30;;
43580;SDS011;29175;51.030;4.606;2023-04-03T06:43:16;19.27;;;9.13;;
43580;SDS011;29175;51.030;4.606;2023-04-03T06:45:42;21.02;;;7.78;;
43580;SDS011;29175;51.030;4.606;2023-04-03T06:48:08;17.50;;;8.23;;
43580;SDS011;29175;51.030;4.606;2023-04-03T06:50:34;18.92;;;7.53;;
43580;SDS011;29175;51.030;4.606;2023-04-03T06:53:00;15.27;;;7.25;;
43580;SDS011;29175;51.030;4.606;2023-04-03T06:55:26;14.02;;;7.22;;
43580;SDS011;29175;51.030;4.606;2023-04-03T06:57:51;15.27;;;7.07;;
43580;SDS011;29175;51.030;4.606;2023-04-03T07:00:17;15.02;;;7.20;;
43580;SDS011;29175;51.030;4.606;2023-04-03T07:02:44;10.18;;;6.45;;
43580;SDS011;29175;51.030;4.606;2023-04-03T07:05:10;17.98;;;6.32;;
43580;SDS011;29175;51.030;4.606;2023-04-03T07:07:36;13.57;;;7.10;;
43580;SDS011;29175;51.030;4.606;2023-04-03T07:10:03;11.93;;;6.30;;
43580;SDS011;29175;51.030;4.606;2023-04-03T07:12:31;14.57;;;7.00;;
43580;SDS011;29175;51.030;4.606;2023-04-03T07:14:57;13.30;;;6.63;;
43580;SDS011;29175;51.030;4.606;2023-04-03T07:17:23;17.27;;;7.18;;
43580;SDS011;29175;51.030;4.606;2023-04-03T07:19:50;13.32;;;6.70;;
43580;SDS011;29175;51.030;4.606;2023-04-03T07:22:16;11.90;;;6.70;;
43580;SDS011;29175;51.030;4.606;2023-04-03T07:24:42;15.70;;;7.28;;
43580;SDS011;29175;51.030;4.606;2023-04-03T07:27:08;14.63;;;6.53;;
43580;SDS011;29175;51.030;4.606;2023-04-03T07:29:35;22.95;;;7.50;;
43580;SDS011;29175;51.030;4.606;2023-04-03T07:32:01;12.32;;;5.95;;
43580;SDS011;29175;51.030;4.606;2023-04-03T07:34:28;8.98;;;6.15;;
43580;SDS011;29175;51.030;4.606;2023-04-03T07:36:53;9.73;;;5.57;;
43580;SDS011;29175;51.030;4.606;2023-04-03T07:39:19;13.38;;;5.53;;
43580;SDS011;29175;51.030;4.606;2023-04-03T07:41:45;12.43;;;5.93;;
43580;SDS011;29175;51.030;4.606;2023-04-03T07:44:11;19.10;;;5.95;;
43580;SDS011;29175;51.030;4.606;2023-04-03T07:46:37;8.98;;;5.75;;
43580;SDS011;29175;51.030;4.606;2023-04-03T07:49:03;11.77;;;5.55;;
43580;SDS011;29175;51.030;4.606;2023-04-03T07:51:29;10.15;;;4.97;;
43580;SDS011;29175;51.030;4.606;2023-04-03T07:53:55;13.77;;;5.72;;
43580;SDS011;29175;51.030;4.606;2023-04-03T07:56:21;13.52;;;5.68;;
43580;SDS011;29175;51.030;4.606;2023-04-03T07:58:47;9.95;;;5.20;;
43580;SDS011;29175;51.030;4.606;2023-04-03T08:01:13;10.48;;;5.35;;
43580;SDS011;29175;51.030;4.606;2023-04-03T08:03:39;10.10;;;4.55;;
43580;SDS011;29175;51.030;4.606;2023-04-03T08:06:05;8.75;;;4.40;;
43580;SDS011;29175;51.030;4.606;2023-04-03T08:08:32;7.53;;;3.80;;
43580;SDS011;29175;51.030;4.606;2023-04-03T08:11:00;13.23;;;4.50;;
43580;SDS011;29175;51.030;4.606;2023-04-03T08:13:27;9.07;;;4.43;;
43580;SDS011;29175;51.030;4.606;2023-04-03T08:15:55;11.48;;;4.00;;
43580;SDS011;29175;51.030;4.606;2023-04-03T08:18:22;7.00;;;4.00;;
43580;SDS011;29175;51.030;4.606;2023-04-03T08:20:49;9.10;;;4.47;;
43580;SDS011;29175;51.030;4.606;2023-04-03T08:23:16;8.32;;;3.95;;
43580;SDS011;29175;51.030;4.606;2023-04-03T08:25:42;8.90;;;3.50;;
43580;SDS011;29175;51.030;4.606;2023-04-03T08:28:11;11.27;;;4.55;;
43580;SDS011;29175;51.030;4.606;2023-04-03T08:30:40;10.60;;;4.00;;
43580;SDS011;29175;51.030;4.606;2023-04-03T08:33:07;10.50;;;3.92;;
43580;SDS011;29175;51.030;4.606;2023-04-03T08:35:37;12.43;;;3.67;;
43580;SDS011;29175;51.030;4.606;2023-04-03T08:38:04;8.05;;;3.45;;
43580;SDS011;29175;51.030;4.606;2023-04-03T08:40:29;14.65;;;3.88;;
43580;SDS011;29175;51.030;4.606;2023-04-03T08:45:25;6.68;;;3.60;;
43580;SDS011;29175;51.030;4.606;2023-04-03T08:50:38;15.38;;;3.13;;
43580;SDS011;29175;51.030;4.606;2023-04-03T08:53:17;8.10;;;3.40;;
43580;SDS011;29175;51.030;4.606;2023-04-03T08:55:47;10.50;;;3.58;;
43580;SDS011;29175;51.030;4.606;2023-04-03T08:58:22;9.73;;;3.22;;
43580;SDS011;29175;51.030;4.606;2023-04-03T09:01:01;12.88;;;3.40;;
43580;SDS011;29175;51.030;4.606;2023-04-03T09:03:37;6.00;;;3.20;;
43580;SDS011;29175;51.030;4.606;2023-04-03T09:17:00;7.65;;;2.95;;
43580;SDS011;29175;51.030;4.606;2023-04-03T09:19:42;9.90;;;2.78;;
43580;SDS011;29175;51.030;4.606;2023-04-03T09:22:27;7.47;;;3.20;;
43580;SDS011;29175;51.030;4.606;2023-04-03T09:27:27;4.45;;;2.60;;
43580;SDS011;29175;51.030;4.606;2023-04-03T09:29:53;7.80;;;3.30;;
43580;SDS011;29175;51.030;4.606;2023-04-03T09:32:28;6.88;;;2.80;;
43580;SDS011;29175;51.030;4.606;2023-04-03T09:35:10;10.57;;;2.97;;
43580;SDS011;29175;51.030;4.606;2023-04-03T09:37:45;10.77;;;3.28;;
43580;SDS011;29175;51.030;4.606;2023-04-03T09:42:50;7.65;;;2.60;;
43580;SDS011;29175;51.030;4.606;2023-04-03T09:45:31;7.63;;;3.08;;
43580;SDS011;29175;51.030;4.606;2023-04-03T09:55:58;6.28;;;2.58;;
43580;SDS011;29175;51.030;4.606;2023-04-03T09:58:33;6.90;;;2.60;;
43580;SDS011;29175;51.030;4.606;2023-04-03T10:01:05;4.85;;;2.30;;
43580;SDS011;29175;51.030;4.606;2023-04-03T10:03:35;4.60;;;2.42;;
43580;SDS011;29175;51.030;4.606;2023-04-03T10:06:04;8.93;;;2.45;;
43580;SDS011;29175;51.030;4.606;2023-04-03T10:09:34;7.38;;;2.88;;
43580;SDS011;29175;51.030;4.606;2023-04-03T10:11:56;9.90;;;2.45;;
43580;SDS011;29175;51.030;4.606;2023-04-03T10:14:30;14.80;;;2.40;;
43580;SDS011;29175;51.030;4.606;2023-04-03T10:30:46;7.95;;;2.88;;
43580;SDS011;29175;51.030;4.606;2023-04-03T10:36:10;6.03;;;2.50;;
43580;SDS011;29175;51.030;4.606;2023-04-03T10:38:55;4.82;;;2.55;;
43580;SDS011;29175;51.030;4.606;2023-04-03T10:41:30;4.32;;;2.20;;
43580;SDS011;29175;51.030;4.606;2023-04-03T10:47:07;4.65;;;2.40;;
43580;SDS011;29175;51.030;4.606;2023-04-03T10:57:45;13.05;;;2.50;;
43580;SDS011;29175;51.030;4.606;2023-04-03T11:00:15;8.10;;;2.40;;
43580;SDS011;29175;51.030;4.606;2023-04-03T11:05:26;8.27;;;2.35;;
43580;SDS011;29175;51.030;4.606;2023-04-03T11:07:55;6.43;;;2.10;;
43580;SDS011;29175;51.030;4.606;2023-04-03T11:15:38;4.38;;;1.80;;
43580;SDS011;29175;51.030;4.606;2023-04-03T11:18:06;7.20;;;2.60;;
43580;SDS011;29175;51.030;4.606;2023-04-03T11:20:42;5.18;;;1.80;;
43580;SDS011;29175;51.030;4.606;2023-04-03T11:23:19;8.10;;;1.92;;
43580;SDS011;29175;51.030;4.606;2023-04-03T11:25:50;5.95;;;1.90;;
43580;SDS011;29175;51.030;4.606;2023-04-03T11:28:19;6.03;;;2.40;;
43580;SDS011;29175;51.030;4.606;2023-04-03T11:30:50;5.93;;;2.00;;
43580;SDS011;29175;51.030;4.606;2023-04-03T11:36:26;7.20;;;2.60;;
43580;SDS011;29175;51.030;4.606;2023-04-03T11:38:56;2.97;;;1.75;;
43580;SDS011;29175;51.030;4.606;2023-04-03T11:41:28;5.80;;;2.35;;
43580;SDS011;29175;51.030;4.606;2023-04-03T11:47:03;4.38;;;1.80;;
43580;SDS011;29175;51.030;4.606;2023-04-03T12:13:43;5.10;;;1.80;;
43580;SDS011;29175;51.030;4.606;2023-04-03T12:16:33;6.88;;;1.90;;
43580;SDS011;29175;51.030;4.606;2023-04-03T12:26:46;4.38;;;1.90;;
43580;SDS011;29175;51.030;4.606;2023-04-03T12:34:46;6.65;;;2.38;;
43580;SDS011;29175;51.030;4.606;2023-04-03T12:37:41;3.92;;;1.70;;
43580;SDS011;29175;51.030;4.606;2023-04-03T12:46:03;7.90;;;2.28;;
43580;SDS011;29175;51.030;4.606;2023-04-03T12:48:47;4.72;;;2.00;;
43580;SDS011;29175;51.030;4.606;2023-04-03T12:51:18;11.52;;;2.40;;
43580;SDS011;29175;51.030;4.606;2023-04-03T12:54:16;4.68;;;2.38;;
43580;SDS011;29175;51.030;4.606;2023-04-03T12:56:47;4.32;;;2.30;;
43580;SDS011;29175;51.030;4.606;2023-04-03T13:01:59;6.78;;;2.28;;
43580;SDS011;29175;51.030;4.606;2023-04-03T13:04:29;9.38;;;2.72;;
43580;SDS011;29175;51.030;4.606;2023-04-03T13:06:56;5.40;;;2.55;;
43580;SDS011;29175;51.030;4.606;2023-04-03T13:09:24;8.30;;;3.17;;
43580;SDS011;29175;51.030;4.606;2023-04-03T13:11:52;7.32;;;2.60;;
43580;SDS011;29175;51.030;4.606;2023-04-03T13:14:23;9.00;;;2.90;;
43580;SDS011;29175;51.030;4.606;2023-04-03T13:16:57;6.18;;;2.53;;
43580;SDS011;29175;51.030;4.606;2023-04-03T13:19:25;9.60;;;2.70;;
43580;SDS011;29175;51.030;4.606;2023-04-03T13:21:56;5.50;;;2.15;;
43580;SDS011;29175;51.030;4.606;2023-04-03T13:24:26;8.50;;;2.25;;
43580;SDS011;29175;51.030;4.606;2023-04-03T13:26:54;7.07;;;2.78;;
43580;SDS011;29175;51.030;4.606;2023-04-03T13:29:22;12.32;;;2.88;;
43580;SDS011;29175;51.030;4.606;2023-04-03T13:31:53;4.80;;;2.47;;
43580;SDS011;29175;51.030;4.606;2023-04-03T13:34:21;6.03;;;2.80;;
43580;SDS011;29175;51.030;4.606;2023-04-03T13:36:56;8.77;;;3.40;;
43580;SDS011;29175;51.030;4.606;2023-04-03T13:41:58;13.52;;;3.05;;
43580;SDS011;29175;51.030;4.606;2023-04-03T13:46:59;8.98;;;3.13;;
43580;SDS011;29175;51.030;4.606;2023-04-03T13:49:44;5.85;;;2.40;;
43580;SDS011;29175;51.030;4.606;2023-04-03T13:52:27;8.70;;;2.55;;
43580;SDS011;29175;51.030;4.606;2023-04-03T13:55:11;7.82;;;2.53;;
43580;SDS011;29175;51.030;4.606;2023-04-03T13:57:51;16.65;;;2.72;;
43580;SDS011;29175;51.030;4.606;2023-04-03T14:00:47;9.90;;;2.58;;
43580;SDS011;29175;51.030;4.606;2023-04-03T14:03:29;5.32;;;2.15;;
43580;SDS011;29175;51.030;4.606;2023-04-03T14:06:05;6.60;;;2.15;;
43580;SDS011;29175;51.030;4.606;2023-04-03T14:08:32;7.10;;;2.05;;
43580;SDS011;29175;51.030;4.606;2023-04-03T14:10:58;4.90;;;2.10;;
43580;SDS011;29175;51.030;4.606;2023-04-03T14:13:23;9.55;;;2.63;;
43580;SDS011;29175;51.030;4.606;2023-04-03T14:15:49;9.73;;;2.28;;
43580;SDS011;29175;51.030;4.606;2023-04-03T14:18:17;5.40;;;2.20;;
43580;SDS011;29175;51.030;4.606;2023-04-03T14:20:45;4.27;;;2.23;;
43580;SDS011;29175;51.030;4.606;2023-04-03T14:23:14;3.72;;;2.05;;
43580;SDS011;29175;51.030;4.606;2023-04-03T14:25:41;3.60;;;2.08;;
43580;SDS011;29175;51.030;4.606;2023-04-03T14:28:17;5.65;;;2.20;;
43580;SDS011;29175;51.030;4.606;2023-04-03T14:30:46;7.05;;;2.33;;
43580;SDS011;29175;51.030;4.606;2023-04-03T14:33:14;3.83;;;1.90;;
43580;SDS011;29175;51.030;4.606;2023-04-03T14:35:41;5.40;;;2.50;;
43580;SDS011;29175;51.030;4.606;2023-04-03T14:38:20;6.20;;;2.30;;
43580;SDS011;29175;51.030;4.606;2023-04-03T14:40:51;4.85;;;2.00;;
43580;SDS011;29175;51.030;4.606;2023-04-03T14:43:18;2.78;;;1.90;;
43580;SDS011;29175;51.030;4.606;2023-04-03T14:45:45;6.07;;;2.30;;
43580;SDS011;29175;51.030;4.606;2023-04-03T14:48:21;5.65;;;2.10;;
43580;SDS011;29175;51.030;4.606;2023-04-03T14:50:49;3.75;;;2.10;;
43580;SDS011;29175;51.030;4.606;2023-04-03T14:53:17;7.90;;;2.13;;
43580;SDS011;29175;51.030;4.606;2023-04-03T14:55:47;3.63;;;2.05;;
43580;SDS011;29175;51.030;4.606;2023-04-03T14:58:15;5.63;;;1.92;;
43580;SDS011;29175;51.030;4.606;2023-04-03T15:00:43;4.90;;;2.00;;
43580;SDS011;29175;51.030;4.606;2023-04-03T15:03:13;7.55;;;2.03;;
43580;SDS011;29175;51.030;4.606;2023-04-03T15:05:43;4.72;;;1.95;;
43580;SDS011;29175;51.030;4.606;2023-04-03T15:08:21;3.78;;;2.22;;
43580;SDS011;29175;51.030;4.606;2023-04-03T15:10:49;4.78;;;2.03;;
43580;SDS011;29175;51.030;4.606;2023-04-03T15:13:15;9.95;;;2.08;;
43580;SDS011;29175;51.030;4.606;2023-04-03T15:15:41;3.03;;;2.20;;
43580;SDS011;29175;51.030;4.606;2023-04-03T15:18:10;8.82;;;2.00;;
43580;SDS011;29175;51.030;4.606;2023-04-03T15:20:41;7.43;;;2.10;;
43580;SDS011;29175;51.030;4.606;2023-04-03T15:23:08;6.85;;;2.40;;
43580;SDS011;29175;51.030;4.606;2023-04-03T15:25:36;4.88;;;2.13;;
43580;SDS011;29175;51.030;4.606;2023-04-03T15:28:01;3.60;;;2.40;;
43580;SDS011;29175;51.030;4.606;2023-04-03T15:30:28;6.80;;;2.30;;
43580;SDS011;29175;51.030;4.606;2023-04-03T15:32:54;5.75;;;2.25;;
43580;SDS011;29175;51.030;4.606;2023-04-03T15:35:21;4.38;;;2.22;;
43580;SDS011;29175;51.030;4.606;2023-04-03T15:37:47;6.45;;;2.10;;
43580;SDS011;29175;51.030;4.606;2023-04-03T15:40:13;2.70;;;1.90;;
43580;SDS011;29175;51.030;4.606;2023-04-03T15:42:39;4.55;;;2.03;;
43580;SDS011;29175;51.030;4.606;2023-04-03T15:45:06;10.02;;;2.40;;
43580;SDS011;29175;51.030;4.606;2023-04-03T15:47:32;6.18;;;2.63;;
43580;SDS011;29175;51.030;4.606;2023-04-03T15:49:58;4.68;;;2.30;;
43580;SDS011;29175;51.030;4.606;2023-04-03T15:52:24;4.95;;;2.58;;
43580;SDS011;29175;51.030;4.606;2023-04-03T15:54:50;3.53;;;2.28;;
43580;SDS011;29175;51.030;4.606;2023-04-03T15:57:16;5.72;;;1.88;;
43580;SDS011;29175;51.030;4.606;2023-04-03T15:59:42;4.82;;;2.20;;
43580;SDS011;29175;51.030;4.606;2023-04-03T16:02:08;2.83;;;2.08;;
43580;SDS011;29175;51.030;4.606;2023-04-03T16:04:37;4.35;;;2.42;;
43580;SDS011;29175;51.030;4.606;2023-04-03T16:07:04;6.68;;;2.40;;
43580;SDS011;29175;51.030;4.606;2023-04-03T16:09:30;6.15;;;2.42;;
43580;SDS011;29175;51.030;4.606;2023-04-03T16:11:57;11.57;;;2.58;;
43580;SDS011;29175;51.030;4.606;2023-04-03T16:14:23;4.40;;;2.25;;
43580;SDS011;29175;51.030;4.606;2023-04-03T16:16:49;4.60;;;2.75;;
43580;SDS011;29175;51.030;4.606;2023-04-03T16:19:15;7.18;;;2.42;;
43580;SDS011;29175;51.030;4.606;2023-04-03T16:21:41;8.27;;;2.35;;
43580;SDS011;29175;51.030;4.606;2023-04-03T16:24:07;4.72;;;2.50;;
43580;SDS011;29175;51.030;4.606;2023-04-03T16:26:35;6.38;;;2.85;;
43580;SDS011;29175;51.030;4.606;2023-04-03T16:29:00;7.43;;;2.78;;
43580;SDS011;29175;51.030;4.606;2023-04-03T16:31:26;6.78;;;2.45;;
43580;SDS011;29175;51.030;4.606;2023-04-03T16:33:53;4.55;;;2.30;;
43580;SDS011;29175;51.030;4.606;2023-04-03T16:36:20;5.80;;;2.53;;
43580;SDS011;29175;51.030;4.606;2023-04-03T16:38:47;7.18;;;2.60;;
43580;SDS011;29175;51.030;4.606;2023-04-03T16:41:13;4.40;;;2.58;;
43580;SDS011;29175;51.030;4.606;2023-04-03T16:43:38;9.20;;;3.10;;
43580;SDS011;29175;51.030;4.606;2023-04-03T16:46:05;6.15;;;2.53;;
43580;SDS011;29175;51.030;4.606;2023-04-03T16:48:31;9.32;;;2.67;;
43580;SDS011;29175;51.030;4.606;2023-04-03T16:50:57;7.05;;;2.42;;
43580;SDS011;29175;51.030;4.606;2023-04-03T16:53:23;7.72;;;3.00;;
43580;SDS011;29175;51.030;4.606;2023-04-03T16:55:50;5.15;;;2.60;;
43580;SDS011;29175;51.030;4.606;2023-04-03T16:58:16;14.98;;;2.80;;
43580;SDS011;29175;51.030;4.606;2023-04-03T17:00:42;3.55;;;2.53;;